createdAt,value
2019-03-02T00:02:24.247Z,7.64
2019-03-02T00:04:53.336Z,7.64
2019-03-02T00:07:21.609Z,7.61
2019-03-02T00:09:49.864Z,7.61
2019-03-02T00:12:18.128Z,7.60
2019-03-02T00:14:46.408Z,7.59
2019-03-02T00:17:15.495Z,7.59
2019-03-02T00:19:44.659Z,7.58
2019-03-02T00:22:12.918Z,7.58
2019-03-02T00:24:42.270Z,7.58
2019-03-02T00:27:10.635Z,7.56
2019-03-02T00:29:38.925Z,7.54
2019-03-02T00:32:09.581Z,7.54
2019-03-02T00:34:37.186Z,7.52
2019-03-02T00:37:05.446Z,7.49
2019-03-02T00:39:33.733Z,7.51
2019-03-02T00:42:02.018Z,7.53
2019-03-02T00:44:30.279Z,7.52
2019-03-02T00:46:59.647Z,7.50
2019-03-02T00:49:28.685Z,7.50
2019-03-02T00:51:56.947Z,7.52
2019-03-02T00:54:25.207Z,7.50
2019-03-02T00:56:53.472Z,7.55
2019-03-02T00:59:21.753Z,7.55
2019-03-02T01:01:50.018Z,7.57
2019-03-02T01:04:18.307Z,7.57
2019-03-02T01:06:48.770Z,7.56
2019-03-02T01:09:16.575Z,7.56
2019-03-02T01:11:44.839Z,7.56
2019-03-02T01:14:13.097Z,7.58
2019-03-02T01:16:41.358Z,7.58
2019-03-02T01:19:09.623Z,7.58
2019-03-02T01:21:41.282Z,7.56
2019-03-02T01:24:07.890Z,7.52
2019-03-02T01:26:36.149Z,7.51
2019-03-02T01:29:04.547Z,7.52
2019-03-02T01:31:32.805Z,7.53
2019-03-02T01:34:04.792Z,7.51
2019-03-02T01:36:32.235Z,7.53
2019-03-02T01:39:01.037Z,7.54
2019-03-02T01:41:29.301Z,7.51
2019-03-02T01:43:57.560Z,7.48
2019-03-02T01:46:25.849Z,7.48
2019-03-02T01:48:54.110Z,7.53
2019-03-02T01:51:23.111Z,7.52
2019-03-02T01:53:52.213Z,7.55
2019-03-02T01:56:20.476Z,7.54
2019-03-02T01:58:48.733Z,7.49
2019-03-02T02:01:16.995Z,7.50
2019-03-02T02:03:47.053Z,7.52
2019-03-02T02:06:15.266Z,7.53
2019-03-02T02:08:43.526Z,7.53
2019-03-02T02:11:14.638Z,7.48
2019-03-02T02:13:42.827Z,7.48
2019-03-02T02:16:11.916Z,7.48
2019-03-02T02:18:40.171Z,7.51
2019-03-02T02:21:08.454Z,7.50
2019-03-02T02:23:38.770Z,7.51
2019-03-02T02:26:07.708Z,7.50
2019-03-02T02:28:36.704Z,7.50
2019-03-02T02:31:06.110Z,7.48
2019-03-02T02:33:42.618Z,7.46
2019-03-02T02:36:05.003Z,7.44
2019-03-02T02:38:33.254Z,7.42
2019-03-02T02:41:01.514Z,7.46
2019-03-02T02:43:29.776Z,7.42
2019-03-02T02:45:58.038Z,7.44
2019-03-02T02:48:31.204Z,7.46
2019-03-02T02:50:56.287Z,7.45
2019-03-02T02:53:24.553Z,7.45
2019-03-02T02:55:52.816Z,7.46
2019-03-02T02:58:21.074Z,6.32
2019-03-02T03:00:50.274Z,7.42
2019-03-02T03:03:20.933Z,7.40
2019-03-02T03:05:53.877Z,7.43
2019-03-02T03:08:19.286Z,7.42
2019-03-02T03:10:47.547Z,7.44
2019-03-02T03:13:18.478Z,7.41
2019-03-02T03:15:48.217Z,7.41
2019-03-02T03:18:16.481Z,7.40
2019-03-02T03:20:48.811Z,7.38
2019-03-02T03:23:14.746Z,7.37
2019-03-02T03:25:42.998Z,7.36
2019-03-02T03:28:11.264Z,7.36
2019-03-02T03:30:40.152Z,7.36
2019-03-02T03:33:08.630Z,7.35
2019-03-02T03:35:36.953Z,7.32
2019-03-02T03:38:05.257Z,7.29
2019-03-02T03:40:33.527Z,7.28
2019-03-02T03:43:03.358Z,7.27
2019-03-02T03:45:31.773Z,7.29
2019-03-02T03:48:00.041Z,7.29
2019-03-02T03:50:28.313Z,5.96
2019-03-02T03:52:56.578Z,7.25
2019-03-02T03:55:27.368Z,7.26
2019-03-02T03:58:00.622Z,7.24
2019-03-02T04:00:24.847Z,7.23
2019-03-02T04:02:53.113Z,7.21
2019-03-02T04:05:21.367Z,7.20
2019-03-02T04:07:51.428Z,7.15
2019-03-02T04:10:25.751Z,7.15
2019-03-02T04:12:49.643Z,7.12
2019-03-02T04:15:17.904Z,7.12
2019-03-02T04:17:46.187Z,7.10
2019-03-02T04:20:20.325Z,7.09
2019-03-02T04:22:49.843Z,7.06
2019-03-02T04:25:19.653Z,7.08
2019-03-02T04:27:53.302Z,7.07
2019-03-02T04:30:18.095Z,7.09
2019-03-02T04:32:46.364Z,7.08
2019-03-02T04:35:14.637Z,7.10
2019-03-02T04:37:42.893Z,7.08
2019-03-02T04:40:11.153Z,7.05
2019-03-02T04:42:39.438Z,6.26
2019-03-02T04:45:09.844Z,7.03
2019-03-02T04:47:38.097Z,7.06
2019-03-02T04:50:08.011Z,7.03
2019-03-02T04:52:36.281Z,7.01
2019-03-02T04:55:09.434Z,6.96
2019-03-02T04:57:37.405Z,6.94
2019-03-02T05:00:09.290Z,6.93
2019-03-02T05:02:37.550Z,6.95
2019-03-02T05:05:08.376Z,6.98
2019-03-02T05:07:35.991Z,5.79
2019-03-02T05:10:06.186Z,6.92
2019-03-02T05:12:34.442Z,6.92
2019-03-02T05:15:02.702Z,6.95
2019-03-02T05:17:30.967Z,6.94
2019-03-02T05:20:00.951Z,6.94
2019-03-02T05:22:29.234Z,6.93
2019-03-02T05:24:57.494Z,6.94
2019-03-02T05:27:28.791Z,6.96
2019-03-02T05:29:55.742Z,6.95
2019-03-02T05:32:24.021Z,6.97
2019-03-02T05:34:52.274Z,6.93
2019-03-02T05:37:20.550Z,6.95
2019-03-02T05:39:49.567Z,5.75
2019-03-02T05:42:18.802Z,6.95
2019-03-02T05:44:47.062Z,6.98
2019-03-02T05:47:15.324Z,6.98
2019-03-02T05:49:43.587Z,6.89
2019-03-02T05:52:14.462Z,6.74
2019-03-02T05:54:42.437Z,6.61
2019-03-02T05:57:10.770Z,6.49
2019-03-02T05:59:39.024Z,6.47
2019-03-02T06:02:07.366Z,6.44
2019-03-02T06:04:35.629Z,6.38
2019-03-02T06:07:03.928Z,6.30
2019-03-02T06:09:32.172Z,6.28
2019-03-02T06:12:00.430Z,6.27
2019-03-02T06:14:30.510Z,6.27
2019-03-02T06:16:58.680Z,6.27
2019-03-02T06:19:26.931Z,6.29
2019-03-02T06:21:55.208Z,6.29
2019-03-02T06:24:23.478Z,6.31
2019-03-02T06:26:51.728Z,6.32
2019-03-02T06:29:19.999Z,6.31
2019-03-02T06:31:50.687Z,6.34
2019-03-02T06:34:19.802Z,6.37
2019-03-02T06:36:48.309Z,6.38
2019-03-02T06:39:16.563Z,6.40
2019-03-02T06:41:44.829Z,6.43
2019-03-02T06:44:13.100Z,6.44
2019-03-02T06:46:41.351Z,6.45
2019-03-02T06:49:09.623Z,6.49
2019-03-02T06:51:37.875Z,6.49
2019-03-02T06:54:09.131Z,6.51
2019-03-02T06:56:39.312Z,6.52
2019-03-02T06:59:06.121Z,6.50
2019-03-02T07:01:34.395Z,6.51
2019-03-02T07:04:02.666Z,6.52
2019-03-02T07:06:30.924Z,6.53
2019-03-02T07:08:59.196Z,6.55
2019-03-02T07:11:29.924Z,6.53
2019-03-02T07:13:57.458Z,6.55
2019-03-02T07:16:25.754Z,6.57
2019-03-02T07:18:55.658Z,6.55
2019-03-02T07:21:23.923Z,6.56
2019-03-02T07:23:52.197Z,6.59
2019-03-02T07:26:20.968Z,6.59
2019-03-02T07:28:49.313Z,6.63
2019-03-02T07:31:17.568Z,6.62
2019-03-02T07:33:45.845Z,6.59
2019-03-02T07:36:14.109Z,6.61
2019-03-02T07:38:42.384Z,6.61
2019-03-02T07:41:10.653Z,6.61
2019-03-02T07:43:42.134Z,6.62
2019-03-02T07:46:11.830Z,6.63
2019-03-02T07:48:38.931Z,6.66
2019-03-02T07:51:07.197Z,6.66
2019-03-02T07:53:35.455Z,6.67
2019-03-02T07:56:03.749Z,6.65
2019-03-02T07:58:32.006Z,6.68
2019-03-02T08:01:00.270Z,6.67
2019-03-02T08:03:28.537Z,6.68
2019-03-02T08:05:56.800Z,6.72
2019-03-02T08:08:25.067Z,6.74
2019-03-02T08:10:53.328Z,6.79
2019-03-02T08:13:21.591Z,6.78
2019-03-02T08:15:49.861Z,6.78
2019-03-02T08:18:21.443Z,6.79
2019-03-02T08:20:48.105Z,6.81
2019-03-02T08:23:16.373Z,6.84
2019-03-02T08:25:44.632Z,6.86
2019-03-02T08:28:12.896Z,6.89
2019-03-02T08:30:41.184Z,6.93
2019-03-02T08:33:09.444Z,6.96
2019-03-02T08:35:37.709Z,7.00
2019-03-02T08:38:06.388Z,7.02
2019-03-02T08:40:34.733Z,7.07
2019-03-02T08:43:02.998Z,7.11
2019-03-02T08:45:31.891Z,7.15
2019-03-02T08:48:00.195Z,7.17
2019-03-02T08:50:28.478Z,7.20
2019-03-02T08:52:56.738Z,7.23
2019-03-02T08:55:25.012Z,7.25
2019-03-02T08:57:53.844Z,7.27
2019-03-02T09:00:24.410Z,7.29
2019-03-02T09:02:55.275Z,7.30
2019-03-02T09:05:23.567Z,7.31
2019-03-02T09:07:52.641Z,7.31
2019-03-02T09:10:21.825Z,7.33
2019-03-02T09:12:50.234Z,7.33
2019-03-02T09:15:22.264Z,7.34
2019-03-02T09:17:54.134Z,7.38
2019-03-02T09:20:20.631Z,7.41
2019-03-02T09:22:48.890Z,7.44
2019-03-02T09:25:20.138Z,7.44
2019-03-02T09:27:48.555Z,7.47
2019-03-02T09:30:23.508Z,7.53
2019-03-02T09:32:53.237Z,7.59
2019-03-02T09:35:21.526Z,7.66
2019-03-02T09:37:49.782Z,7.73
2019-03-02T09:40:19.384Z,7.80
2019-03-02T09:42:47.645Z,7.85
2019-03-02T09:45:17.052Z,7.91
2019-03-02T09:47:47.515Z,7.95
2019-03-02T09:50:16.843Z,7.98
2019-03-02T09:52:45.738Z,7.99
2019-03-02T09:55:18.387Z,8.03
2019-03-02T09:57:47.464Z,8.02
2019-03-02T10:00:25.600Z,7.97
2019-03-02T10:02:53.545Z,7.97
2019-03-02T10:05:21.814Z,7.97
2019-03-02T10:07:50.090Z,7.96
2019-03-02T10:10:18.691Z,7.99
2019-03-02T10:12:51.015Z,8.05
2019-03-02T10:15:19.474Z,8.09
2019-03-02T10:17:47.746Z,8.13
2019-03-02T10:20:15.998Z,8.11
2019-03-02T10:22:44.277Z,8.13
2019-03-02T10:25:13.982Z,8.12
2019-03-02T10:27:42.237Z,8.10
2019-03-02T10:30:16.180Z,8.09
2019-03-02T10:32:44.444Z,8.11
2019-03-02T10:35:16.986Z,8.17
2019-03-02T10:37:44.378Z,8.20
2019-03-02T10:40:15.332Z,8.19
2019-03-02T10:42:43.584Z,8.26
2019-03-02T10:45:13.993Z,8.33
2019-03-02T10:47:42.249Z,8.34
2019-03-02T10:50:13.355Z,8.39
2019-03-02T10:52:41.628Z,8.49
2019-03-02T10:55:13.568Z,8.56
2019-03-02T10:57:41.865Z,8.67
2019-03-02T11:00:29.251Z,8.73
2019-03-02T11:03:00.566Z,8.83
2019-03-02T11:05:42.470Z,8.89
2019-03-02T11:08:25.399Z,8.92
2019-03-02T11:11:05.420Z,8.97
2019-03-02T11:13:45.773Z,9.04
2019-03-02T11:16:27.775Z,9.10
2019-03-02T11:19:00.660Z,9.21
2019-03-02T11:21:42.520Z,9.28
2019-03-02T11:24:30.684Z,9.38
2019-03-02T11:27:13.963Z,9.47
2019-03-02T11:29:51.272Z,9.58
2019-03-02T11:32:21.511Z,9.62
2019-03-02T11:35:10.343Z,9.71
2019-03-02T11:37:58.001Z,9.77
2019-03-02T11:40:29.594Z,9.82
2019-03-02T11:42:58.004Z,9.86
2019-03-02T11:45:43.784Z,9.82
2019-03-02T11:48:17.180Z,9.83
2019-03-02T11:50:51.017Z,9.78
2019-03-02T11:53:24.137Z,9.68
2019-03-02T11:56:10.556Z,9.66
2019-03-02T11:58:49.651Z,9.71
2019-03-02T12:01:35.713Z,9.79
2019-03-02T12:04:14.985Z,9.80
2019-03-02T12:06:49.478Z,9.84
2019-03-02T12:09:31.677Z,9.90
2019-03-02T12:12:19.939Z,9.96
2019-03-02T12:14:58.371Z,9.91
2019-03-02T12:17:37.887Z,9.98
2019-03-02T12:20:14.275Z,9.97
2019-03-02T12:22:46.917Z,10.00
2019-03-02T12:25:35.074Z,10.04
2019-03-02T12:28:16.599Z,10.10
2019-03-02T12:30:52.204Z,10.18
2019-03-02T12:33:38.453Z,10.17
2019-03-02T12:36:08.352Z,10.22
2019-03-02T12:38:44.624Z,10.25
2019-03-02T12:41:30.713Z,10.31
2019-03-02T12:44:00.620Z,10.29
2019-03-02T12:46:42.825Z,10.29
2019-03-02T12:49:24.768Z,10.18
2019-03-02T12:52:12.249Z,10.08
2019-03-02T12:54:43.367Z,10.01
2019-03-02T12:57:13.908Z,9.99
2019-03-02T12:59:46.521Z,9.96
2019-03-02T13:02:22.173Z,9.94
2019-03-02T13:04:54.828Z,9.98
2019-03-02T13:07:27.515Z,9.88
2019-03-02T13:09:57.419Z,9.91
2019-03-02T13:12:45.870Z,9.93
2019-03-02T13:15:21.523Z,9.93
2019-03-02T13:17:53.902Z,9.92
2019-03-02T13:20:23.814Z,9.89
2019-03-02T13:22:53.726Z,9.86
2019-03-02T13:25:29.914Z,9.84
2019-03-02T13:28:01.041Z,9.82
2019-03-02T13:30:32.295Z,9.79
2019-03-02T13:33:07.936Z,9.81
2019-03-02T13:35:37.838Z,9.86
2019-03-02T13:38:24.346Z,9.86
2019-03-02T13:40:54.248Z,9.90
2019-03-02T13:43:32.947Z,9.99
2019-03-02T13:46:02.855Z,10.02
2019-03-02T13:48:35.892Z,10.06
2019-03-02T13:51:08.524Z,10.07
2019-03-02T13:53:59.295Z,10.13
2019-03-02T13:56:44.253Z,10.18
2019-03-02T13:59:17.231Z,10.22
2019-03-02T14:01:47.139Z,10.26
2019-03-02T14:04:33.259Z,10.31
2019-03-02T14:07:18.410Z,10.26
2019-03-02T14:09:51.004Z,10.23
2019-03-02T14:12:20.935Z,10.10
2019-03-02T14:14:50.863Z,10.02
2019-03-02T14:17:32.836Z,9.96
2019-03-02T14:20:24.681Z,9.81
2019-03-02T14:22:53.951Z,9.69
2019-03-02T14:25:26.846Z,9.67
2019-03-02T14:27:57.704Z,9.68
2019-03-02T14:30:31.245Z,9.66
2019-03-02T14:33:01.143Z,9.67
2019-03-02T14:35:46.113Z,9.65
2019-03-02T14:38:23.937Z,9.65
2019-03-02T14:40:59.458Z,9.67
2019-03-02T14:43:44.722Z,9.71
2019-03-02T14:46:30.625Z,9.70
2019-03-02T14:49:20.446Z,9.72
2019-03-02T14:51:56.713Z,9.74
2019-03-02T14:54:30.891Z,9.70
2019-03-02T14:57:00.826Z,9.72
2019-03-02T14:59:39.881Z,9.70
2019-03-02T15:02:21.579Z,9.68
2019-03-02T15:04:54.009Z,9.68
2019-03-02T15:07:23.943Z,9.66
2019-03-02T15:10:08.657Z,9.66
2019-03-02T15:12:44.555Z,9.69
2019-03-02T15:15:21.115Z,9.69
2019-03-02T15:17:51.004Z,9.72
2019-03-02T15:20:39.237Z,9.75
2019-03-02T15:23:12.114Z,9.80
2019-03-02T15:25:44.540Z,9.81
2019-03-02T15:28:14.429Z,9.86
2019-03-02T15:30:59.166Z,9.89
2019-03-02T15:33:44.408Z,9.89
2019-03-02T15:36:14.307Z,9.90
2019-03-02T15:39:00.396Z,9.88
2019-03-02T15:41:33.310Z,9.92
2019-03-02T15:44:12.027Z,9.93
2019-03-02T15:46:47.964Z,9.93
2019-03-02T15:49:17.871Z,9.92
2019-03-02T15:51:49.458Z,9.90
2019-03-02T15:54:19.559Z,9.90
2019-03-02T15:57:02.654Z,9.89
2019-03-02T15:59:41.758Z,9.90
2019-03-02T16:02:11.735Z,9.88
2019-03-02T16:04:41.650Z,9.81
2019-03-02T16:07:14.511Z,9.77
2019-03-02T16:10:00.890Z,9.70
2019-03-02T16:12:31.931Z,9.69
2019-03-02T16:15:18.302Z,9.64
2019-03-02T16:18:03.592Z,9.60
2019-03-02T16:20:33.501Z,9.56
2019-03-02T16:23:06.001Z,9.53
2019-03-02T16:25:40.017Z,9.46
2019-03-02T16:28:15.435Z,9.42
2019-03-02T16:31:04.137Z,9.43
2019-03-02T16:33:36.047Z,9.39
2019-03-02T16:36:11.642Z,9.35
2019-03-02T16:38:44.218Z,9.33
2019-03-02T16:41:31.096Z,9.30
2019-03-02T16:44:09.902Z,9.25
2019-03-02T16:46:39.801Z,9.18
2019-03-02T16:49:25.727Z,9.13
2019-03-02T16:52:13.994Z,9.07
2019-03-02T16:54:46.466Z,9.00
2019-03-02T16:57:30.147Z,8.90
2019-03-02T17:00:08.923Z,8.84
2019-03-02T17:02:49.758Z,8.76
2019-03-02T17:05:22.091Z,8.69
2019-03-02T17:07:58.757Z,8.62
2019-03-02T17:10:29.398Z,8.57
2019-03-02T17:13:02.006Z,8.54
2019-03-02T17:15:31.900Z,8.51
2019-03-02T17:18:01.832Z,8.46
2019-03-02T17:20:34.508Z,8.41
2019-03-02T17:23:23.345Z,8.40
2019-03-02T17:25:47.732Z,8.37
2019-03-02T17:28:26.376Z,8.32
2019-03-02T17:31:02.250Z,8.28
2019-03-02T17:33:42.115Z,8.22
2019-03-02T17:36:12.022Z,8.20
2019-03-02T17:38:48.017Z,8.19
2019-03-02T17:41:18.685Z,8.18
2019-03-02T17:44:03.524Z,8.18
2019-03-02T17:46:33.460Z,8.22
2019-03-02T17:49:09.239Z,8.27
2019-03-02T17:51:48.128Z,8.27
2019-03-02T17:54:30.025Z,8.20
2019-03-02T17:57:05.944Z,8.18
2019-03-02T17:59:35.853Z,8.15
2019-03-02T18:02:23.931Z,8.12
2019-03-02T18:04:56.301Z,8.14
2019-03-02T18:07:26.227Z,8.09
2019-03-02T18:10:05.078Z,8.05
2019-03-02T18:12:43.952Z,8.03
2019-03-02T18:15:26.021Z,8.06
2019-03-02T18:17:55.507Z,8.08
2019-03-02T18:20:24.089Z,8.09
2019-03-02T18:22:52.361Z,8.07
2019-03-02T18:25:20.641Z,8.05
2019-03-02T18:27:48.910Z,8.10
2019-03-02T18:30:19.360Z,8.09
2019-03-02T18:32:49.398Z,8.09
2019-03-02T18:35:17.660Z,8.08
2019-03-02T18:37:45.936Z,8.06
2019-03-02T18:40:14.937Z,8.05
2019-03-02T18:42:43.206Z,8.06
2019-03-02T18:45:12.869Z,8.08
2019-03-02T18:47:41.132Z,8.06
2019-03-02T18:50:13.872Z,8.00
2019-03-02T18:52:53.808Z,7.98
2019-03-02T18:55:25.763Z,7.97
2019-03-02T18:57:52.513Z,7.90
2019-03-02T19:00:23.059Z,7.90
2019-03-02T19:02:51.375Z,7.80
2019-03-02T19:05:21.269Z,7.71
2019-03-02T19:07:49.538Z,7.61
2019-03-02T19:10:17.793Z,7.56
2019-03-02T19:12:46.061Z,7.57
2019-03-02T19:15:15.094Z,7.56
2019-03-02T19:17:47.181Z,7.55
2019-03-02T19:20:16.382Z,7.56
2019-03-02T19:22:44.724Z,7.54
2019-03-02T19:25:13.412Z,7.56
2019-03-02T19:27:41.708Z,7.55
2019-03-02T19:30:15.813Z,7.46
2019-03-02T19:32:44.071Z,7.38
2019-03-02T19:35:12.714Z,7.31
2019-03-02T19:37:41.813Z,7.19
2019-03-02T19:40:18.577Z,7.22
2019-03-02T19:42:46.833Z,7.17
2019-03-02T19:45:15.104Z,7.16
2019-03-02T19:47:43.368Z,7.10
2019-03-02T19:50:14.439Z,7.07
2019-03-02T19:52:42.706Z,7.05
2019-03-02T19:55:13.239Z,7.06
2019-03-02T19:57:41.493Z,7.03
2019-03-02T20:00:15.869Z,7.01
2019-03-02T20:02:44.511Z,7.01
2019-03-02T20:05:12.756Z,7.01
2019-03-02T20:07:41.025Z,6.99
2019-03-02T20:10:11.623Z,6.99
2019-03-02T20:12:39.909Z,6.95
2019-03-02T20:15:13.651Z,6.92
2019-03-02T20:17:41.910Z,6.92
2019-03-02T20:20:12.619Z,6.91
2019-03-02T20:22:40.877Z,6.87
2019-03-02T20:25:14.652Z,6.84
2019-03-02T20:27:43.249Z,6.77
2019-03-02T20:30:19.423Z,6.77
2019-03-02T20:32:47.819Z,6.71
2019-03-02T20:35:30.315Z,6.64
2019-03-02T20:37:58.571Z,6.61
2019-03-02T20:40:28.439Z,6.65
2019-03-02T20:42:56.704Z,6.68
2019-03-02T20:45:24.951Z,6.70
2019-03-02T20:47:53.220Z,6.76
2019-03-02T20:50:25.204Z,6.82
2019-03-02T20:52:53.461Z,6.85
2019-03-02T20:55:21.737Z,6.88
2019-03-02T20:57:50.465Z,6.89
2019-03-02T21:00:27.526Z,6.90
2019-03-02T21:02:57.133Z,6.95
2019-03-02T21:05:27.196Z,7.02
2019-03-02T21:07:55.462Z,7.07
2019-03-02T21:10:31.466Z,7.13
2019-03-02T21:12:59.756Z,7.16
2019-03-02T21:15:39.624Z,7.20
2019-03-02T21:18:07.967Z,7.23
2019-03-02T21:20:36.661Z,7.25
2019-03-02T21:23:05.049Z,7.28
2019-03-02T21:25:33.339Z,7.29
2019-03-02T21:28:02.061Z,7.29
2019-03-02T21:30:30.324Z,7.31
2019-03-02T21:32:58.590Z,7.31
2019-03-02T21:35:26.896Z,7.31
2019-03-02T21:37:55.184Z,7.31
2019-03-02T21:40:29.434Z,7.31
2019-03-02T21:42:57.716Z,7.29
2019-03-02T21:45:30.231Z,7.31
2019-03-02T21:47:58.508Z,7.32
2019-03-02T21:50:34.553Z,7.32
2019-03-02T21:53:02.823Z,7.33
2019-03-02T21:55:31.080Z,7.32
2019-03-02T21:57:59.344Z,7.30
2019-03-02T22:00:30.684Z,7.31
2019-03-02T22:02:58.941Z,7.33
2019-03-02T22:05:27.213Z,7.36
2019-03-02T22:07:55.468Z,7.41
2019-03-02T22:10:35.649Z,7.49
2019-03-02T22:13:03.941Z,7.52
2019-03-02T22:15:32.192Z,7.58
2019-03-02T22:18:00.464Z,7.62
2019-03-02T22:20:28.722Z,7.67
2019-03-02T22:22:57.051Z,7.69
2019-03-02T22:25:25.581Z,7.70
2019-03-02T22:27:53.842Z,7.72
2019-03-02T22:30:24.602Z,7.74
2019-03-02T22:32:52.863Z,7.75
2019-03-02T22:35:21.158Z,7.79
2019-03-02T22:37:49.422Z,7.79
2019-03-02T22:40:19.332Z,7.80
2019-03-02T22:42:47.593Z,7.81
2019-03-02T22:45:16.897Z,7.82
2019-03-02T22:47:45.165Z,7.80
2019-03-02T22:50:16.679Z,7.81
2019-03-02T22:52:44.967Z,7.82
2019-03-02T22:55:14.679Z,7.82
2019-03-02T22:57:42.941Z,7.84
2019-03-02T23:00:17.484Z,7.82
2019-03-02T23:02:44.798Z,7.85
2019-03-02T23:05:13.090Z,7.86
2019-03-02T23:07:41.349Z,7.86
2019-03-02T23:10:10.449Z,7.87
2019-03-02T23:12:38.716Z,7.89
2019-03-02T23:15:15.331Z,7.88
2019-03-02T23:17:43.618Z,7.92
2019-03-02T23:20:11.878Z,7.94
2019-03-02T23:22:40.167Z,7.94
2019-03-02T23:25:16.053Z,7.95
2019-03-02T23:27:44.337Z,7.94
2019-03-02T23:30:25.880Z,7.93
2019-03-02T23:32:54.170Z,7.96
2019-03-02T23:35:22.804Z,7.99
2019-03-02T23:37:51.060Z,7.99
2019-03-02T23:40:21.032Z,7.99
2019-03-02T23:42:49.291Z,7.99
2019-03-02T23:45:18.492Z,7.97
2019-03-02T23:47:46.751Z,7.93
2019-03-02T23:50:15.189Z,7.91
2019-03-02T23:52:43.551Z,7.93
2019-03-02T23:55:13.068Z,7.93
2019-03-02T23:57:41.330Z,7.95
